Time;durP1;ratioP1;P1;durP2;ratioP2;P2;SDS_P1;SDS_P2;PMS_P1;PMS_P2;Temp;Humidity;BMP_temperature;BMP_pressure;BME280_temperature;BME280_humidity;BME280_pressure;Samples;Min_cycle;Max_cycle;Signal;HPM_P1;HPM_P2
2022/01/26 00:00:07;;;;;;;19.53;12.53;;;13.10;91.60;;;;;;5208847;28;20495;-31
2022/01/26 00:05:52;;;;;;;20.93;10.70;;;13.10;91.50;;;;;;5165809;28;20555;-28
2022/01/26 00:08:25;;;;;;;16.00;9.13;;;13.10;91.50;;;;;;5165521;28;20460;-31
2022/01/26 00:10:56;;;;;;;;;;;13.10;91.50;;;;;;5166185;28;20483;-29
2022/01/26 00:13:27;;;;;;;13.73;8.03;;;13.10;91.50;;;;;;5165401;28;19960;-29
2022/01/26 00:16:01;;;;;;;11.77;6.80;;;13.00;91.50;;;;;;5165463;28;20074;-28
2022/01/26 00:18:35;;;;;;;14.43;8.37;;;13.00;91.50;;;;;;5165568;28;20134;-29
2022/01/26 00:21:16;;;;;;;18.40;9.83;;;13.00;91.50;;;;;;5187902;28;20111;-29
2022/01/26 00:26:34;;;;;;;38.83;18.83;;;13.00;91.40;;;;;;5208279;28;20067;-29
2022/01/26 00:42:54;;;;;;;77.10;40.47;;;12.90;91.50;;;;;;5208144;28;20392;-33
2022/01/26 00:45:33;;;;;;;46.53;25.93;;;12.90;91.50;;;;;;5207623;28;20052;-29
2022/01/26 00:48:06;;;;;;;36.03;20.50;;;12.90;91.50;;;;;;5207429;28;20045;-30
2022/01/26 00:50:38;;;;;;;;;;;12.90;91.50;;;;;;5208176;28;20053;-29
2022/01/26 00:53:09;;;;;;;43.33;23.17;;;12.90;91.50;;;;;;5207671;28;20355;-30
2022/01/26 00:55:40;;;;;;;30.23;17.13;;;12.90;91.50;;;;;;5207706;28;20447;-29
2022/01/26 00:58:10;;;;;;;44.90;23.50;;;12.90;91.50;;;;;;5207752;28;20068;-31
2022/01/26 01:00:42;;;;;;;17.80;11.37;;;12.90;91.50;;;;;;5207558;28;20396;-30
2022/01/26 01:03:12;;;;;;;17.93;11.43;;;12.90;91.60;;;;;;5206206;28;20049;-29
2022/01/26 01:05:59;;;;;;;15.93;10.40;;;12.80;91.50;;;;;;5207680;28;20427;-29
2022/01/26 01:08:30;;;;;;;13.20;9.83;;;12.80;91.60;;;;;;5206210;28;20490;-30
2022/01/26 01:11:01;;;;;;;15.60;11.03;;;12.80;91.60;;;;;;5207588;28;20045;-29
2022/01/26 01:13:38;;;;;;;14.60;10.43;;;12.80;91.60;;;;;;5206298;28;20502;-32
2022/01/26 01:16:15;;;;;;;14.50;11.10;;;12.80;91.60;;;;;;5208094;28;20387;-30
2022/01/26 01:22:01;;;;;;;16.50;10.60;;;12.80;91.70;;;;;;5207389;28;20455;-30
2022/01/26 01:27:06;;;;;;;16.07;11.53;;;12.80;91.70;;;;;;5206478;28;20072;-30
2022/01/26 01:29:45;;;;;;;18.50;12.02;;;12.80;91.70;;;;;;5207621;28;20136;-31
2022/01/26 01:32:28;;;;;;;15.83;12.00;;;12.80;91.70;;;;;;5207312;28;20514;-31
2022/01/26 01:35:00;;;;;;;22.77;14.98;;;12.80;91.70;;;;;;5207878;28;20403;-32
2022/01/26 01:37:31;;;;;;;26.35;16.83;;;12.70;91.70;;;;;;5207545;28;20372;-31
2022/01/26 01:40:02;;;;;;;25.00;17.00;;;12.70;91.60;;;;;;5207394;28;20053;-30
2022/01/26 01:42:33;;;;;;;20.20;13.97;;;12.70;91.60;;;;;;5207119;28;20034;-29
2022/01/26 01:45:04;;;;;;;19.43;13.53;;;12.70;91.60;;;;;;5210275;28;20423;-33
2022/01/26 01:47:36;;;;;;;17.40;12.50;;;12.70;91.60;;;;;;5210144;28;20045;-31
2022/01/26 01:50:12;;;;;;;20.30;13.07;;;12.70;91.60;;;;;;5211309;28;20060;-29
2022/01/26 01:52:43;;;;;;;18.20;13.30;;;12.70;91.60;;;;;;5211337;28;20112;-29
2022/01/26 01:55:16;;;;;;;19.30;12.53;;;12.70;91.70;;;;;;5210880;28;20045;-31
2022/01/26 01:57:47;;;;;;;16.25;12.30;;;12.70;91.70;;;;;;5210000;28;20407;-29
2022/01/26 02:00:18;;;;;;;17.40;13.10;;;12.70;91.70;;;;;;5211162;28;20052;-31
2022/01/26 02:02:49;;;;;;;18.67;11.60;;;12.70;91.70;;;;;;5211058;28;20491;-31
2022/01/26 02:05:20;;;;;;;17.90;11.70;;;12.70;91.70;;;;;;5209812;28;20050;-29
2022/01/26 02:07:51;;;;;;;17.37;11.40;;;12.60;91.70;;;;;;5210787;28;20076;-31
2022/01/26 02:10:24;;;;;;;14.20;9.70;;;12.60;91.70;;;;;;5209875;28;20065;-32
2022/01/26 02:12:57;;;;;;;15.23;10.23;;;12.60;91.80;;;;;;5211027;28;20049;-30
2022/01/26 02:15:37;;;;;;;11.73;8.32;;;12.60;91.80;;;;;;5210846;28;20049;-29
2022/01/26 02:21:13;;;;;;;25.20;17.03;;;12.60;91.80;;;;;;5211103;28;20368;-30
2022/01/26 03:02:59;;;;;;;13.18;10.25;;;12.60;91.80;;;;;;5209832;28;20057;-30
2022/01/26 03:05:35;;;;;;;14.43;10.57;;;12.60;91.80;;;;;;5210504;28;20037;-29
2022/01/26 03:08:07;;;;;;;12.73;9.37;;;12.50;91.80;;;;;;5209621;28;20054;-29
2022/01/26 03:10:48;;;;;;;16.07;10.00;;;12.50;91.80;;;;;;5209873;28;20077;-30
2022/01/26 03:13:24;;;;;;;16.63;10.43;;;12.50;91.80;;;;;;5210061;28;20042;-30
2022/01/26 03:16:01;;;;;;;12.40;10.70;;;12.50;91.80;;;;;;5209549;28;20045;-31
2022/01/26 03:21:09;;;;;;;13.07;8.50;;;12.50;91.70;;;;;;5209598;28;20045;-30
2022/01/26 03:29:39;;;;;;;12.20;8.93;;;12.50;91.80;;;;;;5209425;28;20463;-28
2022/01/26 03:34:53;;;;;;;12.47;9.27;;;12.50;91.80;;;;;;5209428;28;20438;-30
2022/01/26 03:37:30;;;;;;;13.23;10.23;;;12.50;91.80;;;;;;5209861;28;20049;-29
2022/01/26 03:40:03;;;;;;;12.23;9.60;;;12.50;91.80;;;;;;5209545;28;20041;-32
2022/01/26 03:42:34;;;;;;;13.65;10.35;;;12.50;91.80;;;;;;5209156;28;20053;-33
2022/01/26 03:45:06;;;;;;;10.57;8.60;;;12.50;91.80;;;;;;5209393;28;20053;-31
2022/01/26 03:47:37;;;;;;;11.77;8.53;;;12.50;91.80;;;;;;5208766;28;20050;-29
2022/01/26 03:50:08;;;;;;;14.67;9.80;;;12.50;91.80;;;;;;5207521;28;20060;-30
2022/01/26 03:52:39;;;;;;;16.17;11.40;;;12.50;91.80;;;;;;5208829;28;20041;-30
2022/01/26 03:55:10;;;;;;;12.33;8.77;;;12.50;91.80;;;;;;5208930;28;20045;-29
2022/01/26 03:57:41;;;;;;;10.97;8.23;;;12.50;91.80;;;;;;5209357;28;20087;-29
2022/01/26 04:00:13;;;;;;;11.70;6.67;;;12.50;91.80;;;;;;5209014;28;20045;-32
2022/01/26 04:02:44;;;;;;;8.93;6.27;;;12.50;91.80;;;;;;5207526;28;20128;-28
2022/01/26 04:05:15;;;;;;;9.80;7.30;;;12.40;91.70;;;;;;5207591;28;20076;-30
2022/01/26 04:07:46;;;;;;;11.60;7.60;;;12.40;91.60;;;;;;5207950;28;20076;-31
2022/01/26 04:10:29;;;;;;;10.30;5.93;;;12.50;91.70;;;;;;5208464;28;20503;-32
2022/01/26 04:13:00;;;;;;;10.90;7.28;;;12.40;91.70;;;;;;5209224;28;20065;-30
2022/01/26 04:15:35;;;;;;;8.63;5.80;;;12.40;91.60;;;;;;5208578;28;20480;-31
2022/01/26 04:18:10;;;;;;;10.67;7.50;;;12.50;91.60;;;;;;5209008;28;20053;-32
2022/01/26 04:20:45;;;;;;;11.70;6.87;;;12.40;91.50;;;;;;5208028;28;20049;-30
2022/01/26 04:23:27;;;;;;;10.33;6.57;;;12.40;91.50;;;;;;5208053;28;20099;-29
2022/01/26 04:25:59;;;;;;;10.60;5.23;;;12.40;91.50;;;;;;5208639;28;20048;-29
2022/01/26 04:31:27;;;;;;;9.20;5.60;;;12.40;91.50;;;;;;5225980;28;20227;-32
2022/01/26 04:33:58;;;;;;;10.07;5.93;;;12.40;91.50;;;;;;5226321;28;20053;-30
2022/01/26 04:36:46;;;;;;;9.50;5.27;;;12.40;91.40;;;;;;5226401;28;20495;-29
2022/01/26 04:39:22;;;;;;;8.07;4.87;;;12.40;91.40;;;;;;5225443;28;20095;-42
2022/01/26 04:41:59;;;;;;;9.00;5.60;;;12.40;91.40;;;;;;5225720;28;20057;-33
2022/01/26 04:44:36;;;;;;;10.80;5.17;;;12.40;91.50;;;;;;5209755;28;20041;-31
2022/01/26 04:47:08;;;;;;;8.93;5.97;;;12.50;91.30;;;;;;5226523;28;20045;-34
2022/01/26 04:49:38;;;;;;;12.17;6.97;;;12.60;91.30;;;;;;5225862;28;20168;-31
2022/01/26 04:52:10;;;;;;;9.53;7.63;;;12.80;91.00;;;;;;5225182;28;20426;-30
2022/01/26 04:54:40;;;;;;;11.27;9.37;;;12.60;90.30;;;;;;5225088;28;20048;-29
2022/01/26 04:57:11;;;;;;;12.07;9.03;;;11.40;91.80;;;;;;5225157;28;20048;-34
2022/01/26 04:59:42;;;;;;;13.47;10.37;;;10.70;92.90;;;;;;5225008;28;20522;-34
2022/01/26 05:02:14;;;;;;;13.87;10.90;;;10.40;93.50;;;;;;5225830;28;20056;-31
2022/01/26 05:04:44;;;;;;;16.37;11.53;;;10.20;93.80;;;;;;5225967;28;20469;-32
2022/01/26 05:07:16;;;;;;;16.27;12.90;;;10.00;93.90;;;;;;5223417;28;20122;-31
2022/01/26 05:09:47;;;;;;;19.57;12.60;;;9.90;94.30;;;;;;5204504;28;20088;-32
2022/01/26 05:12:19;;;;;;;18.03;13.43;;;9.80;94.40;;;;;;5207331;28;20049;-31
2022/01/26 05:14:50;;;;;;;18.70;14.80;;;9.70;94.50;;;;;;5207453;28;20457;-31
2022/01/26 05:17:23;;;;;;;22.23;15.67;;;9.70;94.70;;;;;;5205749;28;20410;-34
2022/01/26 05:19:57;;;;;;;17.90;13.80;;;9.60;94.80;;;;;;5205996;28;20042;-32
2022/01/26 05:22:30;;;;;;;15.07;12.17;;;9.50;95.00;;;;;;5201700;28;20488;-32
2022/01/26 05:25:01;;;;;;;15.50;11.32;;;9.50;94.80;;;;;;5204758;28;20057;-31
2022/01/26 05:27:33;;;;;;;14.07;9.80;;;9.40;95.10;;;;;;5204643;28;20045;-31
2022/01/26 05:30:05;;;;;;;14.87;11.40;;;9.30;95.10;;;;;;5205145;28;20561;-30
2022/01/26 05:32:36;;;;;;;17.03;13.57;;;9.30;95.30;;;;;;5204627;28;20068;-30
2022/01/26 05:35:07;;;;;;;17.07;12.00;;;9.30;95.30;;;;;;5205080;28;20069;-31
2022/01/26 05:37:39;;;;;;;16.90;11.87;;;9.60;95.30;;;;;;5204668;28;20044;-31
2022/01/26 05:40:11;;;;;;;19.50;14.00;;;10.00;94.70;;;;;;5204655;28;20057;-31
2022/01/26 05:42:42;;;;;;;17.70;12.13;;;10.50;94.20;;;;;;5204755;28;20555;-32
2022/01/26 05:45:49;;;;;;;21.83;12.47;;;11.00;93.60;;;;;;5205006;28;20474;-31
2022/01/26 05:48:12;;;;;;;19.80;12.20;;;11.40;93.00;;;;;;5204336;28;20522;-39
2022/01/26 05:50:51;;;;;;;20.73;14.23;;;11.80;92.40;;;;;;5204444;28;20419;-39
2022/01/26 05:53:22;;;;;;;25.03;19.70;;;12.00;92.00;;;;;;5203481;28;20042;-33
2022/01/26 05:55:56;;;;;;;26.83;23.37;;;12.30;91.60;;;;;;5204558;28;20100;-31
2022/01/26 05:58:27;;;;;;;19.70;16.03;;;12.50;91.30;;;;;;5204632;28;20500;-30
2022/01/26 06:01:00;;;;;;;19.97;13.73;;;12.70;91.00;;;;;;5204541;28;20117;-31
2022/01/26 06:03:31;;;;;;;22.10;13.80;;;12.90;90.90;;;;;;5202887;28;20042;-37
2022/01/26 06:06:02;;;;;;;17.87;11.00;;;13.00;90.70;;;;;;5185837;28;20053;-37
2022/01/26 06:08:33;;;;;;;16.37;10.60;;;13.20;90.50;;;;;;5184217;28;20084;-30
2022/01/26 06:11:04;;;;;;;17.97;10.70;;;13.20;90.30;;;;;;5184069;28;20042;-29
2022/01/26 06:13:35;;;;;;;20.87;14.07;;;13.30;90.20;;;;;;5176664;28;20096;-29
2022/01/26 06:16:06;;;;;;;21.17;13.83;;;13.40;90.10;;;;;;5187017;28;20472;-34
2022/01/26 06:18:37;;;;;;;33.93;20.17;;;13.40;90.00;;;;;;5183090;28;20045;-31
2022/01/26 06:21:08;;;;;;;38.00;21.10;;;13.40;90.00;;;;;;5184096;28;20045;-31
2022/01/26 06:23:40;;;;;;;34.60;22.03;;;13.40;90.00;;;;;;5182945;28;20458;-29
2022/01/26 06:26:11;;;;;;;49.17;28.20;;;13.50;89.90;;;;;;5183913;28;20060;-30
2022/01/26 06:28:42;;;;;;;44.73;25.80;;;13.50;89.90;;;;;;5184218;28;20092;-31
2022/01/26 06:31:15;;;;;;;50.90;31.10;;;13.50;89.90;;;;;;5187207;28;20496;-29
2022/01/26 06:33:47;;;;;;;57.57;37.43;;;13.50;89.90;;;;;;5187636;28;20053;-33
2022/01/26 06:36:18;;;;;;;43.07;27.30;;;13.50;89.90;;;;;;5186279;28;20049;-33
2022/01/26 06:38:49;;;;;;;37.77;24.17;;;13.50;89.80;;;;;;5186645;28;20050;-31
2022/01/26 06:41:26;;;;;;;68.73;42.03;;;13.40;89.80;;;;;;5187591;28;20400;-31
2022/01/26 06:44:04;;;;;;;50.27;36.77;;;13.50;89.80;;;;;;5187807;28;20391;-29
2022/01/26 06:46:51;;;;;;;45.77;30.37;;;13.40;89.80;;;;;;5187393;28;20054;-38
2022/01/26 06:51:54;;;;;;;56.37;36.40;;;13.50;90.20;;;;;;5189315;28;20045;-31
2022/01/26 06:54:25;;;;;;;101.97;49.57;;;13.50;90.30;;;;;;5187136;28;20073;-35
2022/01/26 06:56:56;;;;;;;126.93;49.67;;;13.50;90.20;;;;;;5188432;28;20069;-30
2022/01/26 06:59:27;;;;;;;106.77;45.87;;;13.60;90.10;;;;;;5188907;28;20046;-34
2022/01/26 07:01:58;;;;;;;115.90;53.87;;;13.60;90.00;;;;;;5188969;28;20050;-35
2022/01/26 07:04:29;;;;;;;79.17;43.03;;;13.60;90.00;;;;;;5188988;28;20038;-33
2022/01/26 07:07:00;;;;;;;63.33;33.57;;;13.60;90.00;;;;;;5186181;28;20104;-33
2022/01/26 07:09:31;;;;;;;40.80;22.40;;;13.60;90.00;;;;;;5188651;28;20038;-35
2022/01/26 07:12:02;;;;;;;22.97;14.47;;;13.60;90.00;;;;;;5188802;28;20064;-34
2022/01/26 07:23:08;;;;;;;28.02;18.92;;;13.50;90.10;;;;;;5152761;28;20148;-36
2022/01/26 07:25:39;;;;;;;20.30;13.67;;;13.50;90.10;;;;;;5166379;28;20428;-29
2022/01/26 07:28:11;;;;;;;18.97;13.67;;;13.50;90.20;;;;;;5166025;28;20046;-29
2022/01/26 07:30:42;;;;;;;20.60;15.83;;;13.50;90.20;;;;;;5165899;28;20078;-30
2022/01/26 07:33:18;;;;;;;20.03;14.43;;;13.40;90.20;;;;;;5166503;28;20042;-38
2022/01/26 07:35:49;;;;;;;19.20;15.77;;;13.50;90.30;;;;;;5166115;28;20047;-32
2022/01/26 07:38:20;;;;;;;21.10;15.37;;;13.40;90.30;;;;;;5165915;28;20046;-31
2022/01/26 07:40:51;;;;;;;28.97;20.03;;;13.40;90.40;;;;;;5164940;28;20050;-31
2022/01/26 07:43:24;;;;;;;26.83;22.23;;;13.40;90.40;;;;;;5165765;28;20058;-29
2022/01/26 07:45:55;;;;;;;18.77;14.82;;;13.40;90.50;;;;;;5165849;28;20053;-32
2022/01/26 07:48:26;;;;;;;17.93;14.87;;;13.30;90.50;;;;;;5149466;28;20054;-29
2022/01/26 07:50:57;;;;;;;20.23;15.27;;;13.40;90.60;;;;;;5165589;28;20058;-30
2022/01/26 07:53:28;;;;;;;18.67;14.63;;;13.30;90.60;;;;;;5165525;28;20512;-30
2022/01/26 07:56:00;;;;;;;20.37;15.83;;;13.30;90.70;;;;;;5165881;28;20084;-37
2022/01/26 07:58:30;;;;;;;19.40;13.10;;;13.30;90.70;;;;;;5165597;28;20070;-29
2022/01/26 08:01:02;;;;;;;15.47;11.60;;;13.30;90.80;;;;;;5184658;28;20050;-27
2022/01/26 08:03:33;;;;;;;17.67;10.47;;;13.30;90.80;;;;;;5188070;28;20080;-28
2022/01/26 08:06:05;;;;;;;22.67;14.53;;;13.30;90.90;;;;;;5186796;28;20069;-28
2022/01/26 08:08:36;;;;;;;25.33;17.63;;;13.30;91.00;;;;;;5185442;28;20391;-32
2022/01/26 08:11:07;;;;;;;29.53;20.13;;;13.30;91.00;;;;;;5185581;28;20126;-35
2022/01/26 08:13:38;;;;;;;21.00;15.97;;;13.30;91.00;;;;;;5185626;28;20555;-32
2022/01/26 08:16:09;;;;;;;55.87;43.40;;;13.30;91.10;;;;;;5185004;28;20053;-32
2022/01/26 08:18:40;;;;;;;44.60;34.27;;;13.30;91.10;;;;;;5169374;28;20054;-30
2022/01/26 08:21:11;;;;;;;47.27;31.57;;;13.30;91.10;;;;;;5185048;28;20050;-34
2022/01/26 08:23:44;;;;;;;38.50;26.53;;;13.30;91.20;;;;;;5185093;28;20046;-28
2022/01/26 08:26:20;;;;;;;38.20;26.40;;;13.20;91.20;;;;;;5185518;28;20077;-28
2022/01/26 08:28:55;;;;;;;27.90;20.40;;;13.20;91.30;;;;;;5185311;28;20407;-31
2022/01/26 08:31:27;;;;;;;27.70;23.27;;;13.20;91.50;;;;;;5185494;28;20049;-29
2022/01/26 08:33:58;;;;;;;27.03;22.13;;;13.20;91.50;;;;;;5185872;28;20399;-30
2022/01/26 08:36:29;;;;;;;33.73;27.17;;;13.20;91.50;;;;;;5169148;28;20443;-29
2022/01/26 08:39:00;;;;;;;31.17;22.47;;;13.20;91.60;;;;;;5185933;28;20054;-29
2022/01/26 08:41:31;;;;;;;36.43;25.53;;;13.20;91.70;;;;;;5187611;28;20045;-29
2022/01/26 08:44:02;;;;;;;38.00;26.73;;;13.20;92.00;;;;;;5187627;28;20538;-29
2022/01/26 08:46:43;;;;;;;35.50;28.57;;;13.20;92.10;;;;;;5186934;28;20066;-31
2022/01/26 08:49:16;;;;;;;36.57;27.13;;;13.20;92.30;;;;;;5187466;28;20459;-29
2022/01/26 08:51:49;;;;;;;33.33;26.77;;;13.30;92.10;;;;;;5187165;28;20050;-28
2022/01/26 08:54:22;;;;;;;32.95;25.85;;;13.40;92.00;;;;;;5187217;28;20080;-30
2022/01/26 08:57:06;;;;;;;30.73;23.23;;;13.40;92.00;;;;;;5186823;28;20069;-29
2022/01/26 08:59:37;;;;;;;34.03;24.43;;;13.40;91.90;;;;;;5186374;28;20042;-29
2022/01/26 09:02:08;;;;;;;31.50;23.60;;;13.50;92.00;;;;;;5187009;28;20046;-30
2022/01/26 09:04:39;;;;;;;33.23;23.40;;;13.50;92.00;;;;;;5186939;28;20108;-29
2022/01/26 09:07:14;;;;;;;34.40;23.63;;;13.50;92.00;;;;;;5187475;28;20452;-28
2022/01/26 09:09:46;;;;;;;38.87;29.30;;;13.50;92.10;;;;;;5187167;28;20100;-30
2022/01/26 09:12:18;;;;;;;35.73;27.57;;;13.40;92.20;;;;;;5187015;28;20046;-28
2022/01/26 09:14:49;;;;;;;37.55;28.67;;;13.50;92.30;;;;;;5186998;28;20042;-29
2022/01/26 09:17:23;;;;;;;33.13;25.77;;;13.40;92.30;;;;;;5187059;28;20041;-32
2022/01/26 09:19:56;;;;;;;28.97;22.63;;;13.40;92.40;;;;;;5187463;28;20388;-31
2022/01/26 09:22:27;;;;;;;24.97;19.17;;;13.40;92.50;;;;;;5186967;28;20038;-27
2022/01/26 09:24:58;;;;;;;22.87;17.27;;;13.40;92.60;;;;;;5186815;28;20108;-31
2022/01/26 09:27:29;;;;;;;20.07;16.17;;;13.40;92.70;;;;;;5185693;28;20054;-29
2022/01/26 09:30:00;;;;;;;22.73;17.53;;;13.40;92.70;;;;;;5185908;28;20049;-29
2022/01/26 09:32:35;;;;;;;21.57;16.83;;;13.40;92.90;;;;;;5186704;28;20050;-37
2022/01/26 09:35:17;;;;;;;17.40;14.50;;;13.30;93.00;;;;;;5186979;28;20408;-29
2022/01/26 09:38:03;;;;;;;16.07;13.43;;;13.40;93.00;;;;;;5184755;28;20141;-32
2022/01/26 09:40:49;;;;;;;18.88;14.65;;;13.30;93.10;;;;;;5186567;28;20405;-32
2022/01/26 09:43:20;;;;;;;19.10;15.60;;;13.30;93.20;;;;;;5186655;28;20517;-34
2022/01/26 09:45:51;;;;;;;15.77;13.67;;;13.30;93.30;;;;;;5186293;28;20133;-32
2022/01/26 09:48:23;;;;;;;15.90;13.80;;;13.30;93.40;;;;;;5186274;28;20046;-33
2022/01/26 09:50:55;;;;;;;16.87;13.10;;;13.30;93.50;;;;;;5185118;28;20050;-29
2022/01/26 09:53:29;;;;;;;24.10;18.35;;;13.30;93.70;;;;;;5185257;28;20073;-32
2022/01/26 09:56:00;;;;;;;21.85;17.15;;;13.30;93.80;;;;;;5186484;28;20400;-35
2022/01/26 09:58:32;;;;;;;25.00;16.83;;;13.30;93.90;;;;;;5186440;28;20053;-34
2022/01/26 10:01:04;;;;;;;18.03;13.63;;;13.20;93.90;;;;;;5186688;28;20377;-31
2022/01/26 10:03:36;;;;;;;22.47;17.30;;;13.20;94.00;;;;;;5186699;28;20057;-32
2022/01/26 10:06:17;;;;;;;14.90;11.82;;;13.20;94.10;;;;;;5189919;28;20057;-37
2022/01/26 10:19:33;;;;;;;14.70;12.07;;;13.20;94.50;;;;;;5190862;28;20100;-31
2022/01/26 10:22:04;;;;;;;11.50;10.30;;;13.10;94.60;;;;;;5190716;28;20081;-35
2022/01/26 10:24:37;;;;;;;9.73;7.93;;;13.10;94.70;;;;;;5173063;28;20053;-34
2022/01/26 10:27:12;;;;;;;13.73;10.47;;;13.10;94.80;;;;;;5188971;28;20049;-35
2022/01/26 10:29:47;;;;;;;40.20;25.80;;;13.10;94.80;;;;;;5188984;28;20046;-29
2022/01/26 10:32:17;;;;;;;22.40;14.43;;;13.10;94.90;;;;;;5172695;28;20049;-31
2022/01/26 10:34:59;;;;;;;23.30;17.33;;;13.10;95.00;;;;;;5190249;28;20056;-30
2022/01/26 10:37:30;;;;;;;19.17;15.97;;;13.10;95.00;;;;;;5204197;28;20472;-32
2022/01/26 10:40:12;;;;;;;44.40;39.60;;;13.00;95.10;;;;;;5193974;28;20045;-31
2022/01/26 10:43:01;;;;;;;32.10;28.70;;;13.00;95.10;;;;;;5199142;28;20092;-37
2022/01/26 10:48:28;;;;;;;7.90;6.70;;;13.00;95.40;;;;;;5198832;28;20095;-33
2022/01/26 10:53:57;;;;;;;36.90;18.37;;;12.90;95.50;;;;;;5193139;28;20120;-30
2022/01/26 10:56:28;;;;;;;26.63;14.53;;;12.90;95.50;;;;;;5187558;28;20104;-36
2022/01/26 10:58:59;;;;;;;8.40;6.17;;;12.90;95.50;;;;;;5187258;28;20100;-37
2022/01/26 11:01:30;;;;;;;18.43;10.33;;;12.90;95.50;;;;;;5191757;28;20041;-29
2022/01/26 11:04:02;;;;;;;7.07;4.50;;;12.90;95.60;;;;;;5195512;28;20088;-35
2022/01/26 11:06:33;;;;;;;12.10;6.00;;;12.90;95.60;;;;;;5187219;28;20495;-33
2022/01/26 11:09:10;;;;;;;14.07;7.03;;;12.90;95.60;;;;;;5183543;28;20049;-30
2022/01/26 11:11:43;;;;;;;32.93;17.17;;;12.80;95.50;;;;;;5184444;28;20121;-33
2022/01/26 11:14:16;;;;;;;28.47;17.30;;;12.90;95.60;;;;;;5199271;28;20128;-35
2022/01/26 11:17:00;;;;;;;20.77;13.18;;;12.80;95.50;;;;;;5186419;28;20817;-30
2022/01/26 11:19:41;;;;;;;20.57;16.93;;;12.80;95.40;;;;;;5186658;28;20050;-29
2022/01/26 11:22:14;;;;;;;9.67;7.70;;;12.90;95.40;;;;;;5186985;28;20069;-29
2022/01/26 11:24:46;;;;;;;42.78;18.88;;;12.90;95.40;;;;;;5185384;28;20054;-30
2022/01/26 11:27:18;;;;;;;20.92;9.18;;;12.90;95.40;;;;;;5186733;28;20052;-33
2022/01/26 11:29:53;;;;;;;16.33;9.57;;;12.90;95.30;;;;;;5186405;28;20046;-40
2022/01/26 11:32:30;;;;;;;13.57;8.87;;;12.80;95.30;;;;;;5186480;28;20042;-30
2022/01/26 11:35:04;;;;;;;16.40;10.50;;;12.80;95.30;;;;;;5186385;28;20050;-33
2022/01/26 11:38:14;;;;;;;17.07;9.57;;;12.90;95.20;;;;;;5186567;28;20050;-29
2022/01/26 11:46:36;;;;;;;19.47;11.50;;;12.80;95.20;;;;;;5185959;28;20472;-31
2022/01/26 11:49:10;;;;;;;9.87;7.03;;;12.80;95.20;;;;;;5187608;28;20050;-31
2022/01/26 11:51:46;;;;;;;20.10;14.03;;;12.70;95.20;;;;;;5205389;28;20053;-30
2022/01/26 11:54:40;;;;;;;18.63;10.13;;;12.80;95.10;;;;;;5190417;28;20377;-37
2022/01/26 11:57:16;;;;;;;10.50;7.07;;;12.80;95.10;;;;;;5183390;28;20042;-34
2022/01/26 12:00:00;;;;;;;6.57;4.40;;;12.80;95.00;;;;;;5183638;28;20077;-38
2022/01/26 12:05:21;;;;;;;4.13;3.13;;;12.80;94.90;;;;;;5183411;28;20562;-31
2022/01/26 12:07:54;;;;;;;10.10;5.43;;;12.80;94.90;;;;;;5183375;28;20056;-30
2022/01/26 12:10:29;;;;;;;6.40;4.53;;;12.80;94.90;;;;;;5167196;28;20112;-32
2022/01/26 12:13:12;;;;;;;13.20;9.33;;;12.80;94.80;;;;;;5183159;28;20085;-31
2022/01/26 12:18:31;;;;;;;17.23;10.90;;;12.80;94.70;;;;;;5183804;28;20511;-35
2022/01/26 12:35:00;;;;;;;22.20;14.10;;;12.80;94.70;;;;;;5014183;29;20575;-29
2022/01/26 12:38:11;;;;;;;10.57;6.03;;;12.80;94.70;;;;;;4988335;29;20055;-30
2022/01/26 12:44:10;;;;;;;7.63;5.63;;;12.80;94.80;;;;;;4968392;29;20139;-36
2022/01/26 12:46:41;;;;;;;8.33;5.37;;;12.80;94.80;;;;;;4968548;29;20105;-30
2022/01/26 12:49:16;;;;;;;13.80;7.73;;;12.80;94.90;;;;;;4967898;29;20171;-29
2022/01/26 12:51:51;;;;;;;10.30;7.13;;;12.70;94.80;;;;;;4968140;29;20059;-33
2022/01/26 12:54:22;;;;;;;18.97;12.97;;;12.70;95.20;;;;;;4968098;29;20104;-31
2022/01/26 12:57:06;;;;;;;10.18;6.97;;;12.70;94.90;;;;;;4968354;29;20099;-30
2022/01/26 12:59:37;;;;;;;15.73;9.93;;;12.70;94.90;;;;;;4967847;29;20059;-31
2022/01/26 13:02:08;;;;;;;13.80;9.33;;;12.70;95.00;;;;;;4968239;29;20058;-32
2022/01/26 13:04:39;;;;;;;11.67;7.50;;;12.70;95.00;;;;;;4992485;29;20064;-34
2022/01/26 13:07:15;;;;;;;8.93;6.10;;;12.70;95.00;;;;;;5059520;29;20088;-34
2022/01/26 13:09:46;;;;;;;11.00;7.03;;;12.70;95.10;;;;;;5062945;29;20055;-35
2022/01/26 13:12:28;;;;;;;15.37;9.57;;;12.70;95.10;;;;;;5053328;29;20602;-32
2022/01/26 13:15:06;;;;;;;12.13;7.93;;;12.70;95.10;;;;;;5077380;29;20055;-33
2022/01/26 13:18:10;;;;;;;9.37;6.20;;;12.70;95.10;;;;;;5118634;28;20134;-30
2022/01/26 13:28:23;;;;;;;26.43;15.40;;;12.20;95.20;;;;;;5198535;28;20128;-31
2022/01/26 13:52:43;;;;;;;27.33;15.70;;;10.10;99.50;;;;;;5192572;28;20202;-28
2022/01/26 14:00:53;;;;;;;49.88;19.08;;;10.00;99.70;;;;;;5196318;28;20045;-34
2022/01/26 14:03:34;;;;;;;69.00;23.87;;;10.40;99.30;;;;;;5188703;28;20129;-32
2022/01/26 14:06:13;;;;;;;41.53;21.97;;;10.80;98.70;;;;;;5187065;28;20050;-30
2022/01/26 14:08:46;;;;;;;53.13;24.07;;;11.10;98.10;;;;;;5187174;28;20102;-34
2022/01/26 14:11:20;;;;;;;;;;;11.30;97.60;;;;;;5186195;28;20191;-29
2022/01/26 14:13:55;;;;;;;36.20;23.97;;;11.50;97.10;;;;;;5210416;28;19921;-32
2022/01/26 14:16:29;;;;;;;11.73;8.73;;;11.70;96.70;;;;;;5210900;28;20041;-30
2022/01/26 14:24:32;;;;;;;15.00;9.50;;;12.00;95.80;;;;;;5210602;28;20056;-36
2022/01/26 14:27:05;;;;;;;22.10;12.23;;;12.10;95.80;;;;;;5208776;28;20089;-34
2022/01/26 14:29:54;;;;;;;;;;;12.20;95.30;;;;;;5210470;28;20042;-28
2022/01/26 14:35:16;;;;;;;14.20;11.27;;;12.30;95.00;;;;;;5207668;28;20048;-29
2022/01/26 15:09:01;;;;;;;11.73;8.10;;;12.60;93.90;;;;;;5227988;28;20057;-36
2022/01/26 15:34:08;;;;;;;11.70;8.97;;;12.80;93.80;;;;;;5190879;28;20463;-35
2022/01/26 15:42:23;;;;;;;16.73;12.30;;;12.80;93.80;;;;;;5206335;28;20471;-32
2022/01/26 15:48:43;;;;;;;15.13;11.33;;;12.80;93.70;;;;;;5203281;28;20406;-32
2022/01/26 15:59:19;;;;;;;12.77;8.13;;;12.70;93.40;;;;;;5203980;28;20049;-33
2022/01/26 16:07:25;;;;;;;19.27;13.03;;;12.70;93.40;;;;;;5207920;28;20095;-29
2022/01/26 16:21:32;;;;;;;14.23;11.10;;;12.60;93.20;;;;;;5207231;28;20041;-34
2022/01/26 16:38:22;;;;;;;19.67;14.07;;;12.50;93.10;;;;;;5205586;28;20065;-29
2022/01/26 17:12:20;;;;;;;118.00;64.37;;;12.40;92.80;;;;;;5204545;28;20048;-30
2022/01/26 18:14:37;;;;;;;28.77;21.10;;;12.50;91.40;;;;;;5164351;28;20057;-33
2022/01/26 18:16:44;;;;;;;23.10;17.80;;;12.60;91.20;;;;;;5160554;28;20110;-31
2022/01/26 18:50:06;;;;;;;195.60;106.33;;;13.50;90.00;;;;;;5208568;28;20137;-33
2022/01/26 18:53:02;;;;;;;47.53;29.83;;;13.50;90.30;;;;;;5207778;28;20124;-36
2022/01/26 18:55:37;;;;;;;39.03;23.37;;;13.40;91.10;;;;;;5200238;28;20065;-29
2022/01/26 18:58:08;;;;;;;43.03;22.90;;;13.40;90.30;;;;;;5207381;28;20069;-33
2022/01/26 19:00:44;;;;;;;24.73;14.57;;;13.40;90.70;;;;;;5206738;28;20046;-32
2022/01/26 19:03:15;;;;;;;24.00;12.17;;;13.40;90.40;;;;;;5207539;28;20124;-34
2022/01/26 19:05:50;;;;;;;22.87;12.97;;;13.30;90.60;;;;;;5207753;28;20044;-31
2022/01/26 19:08:21;;;;;;;19.13;12.07;;;13.30;90.30;;;;;;5207370;28;20146;-37
2022/01/26 19:10:53;;;;;;;29.17;18.00;;;13.30;90.60;;;;;;5209325;28;20057;-34
2022/01/26 19:13:28;;;;;;;44.30;24.93;;;13.30;90.80;;;;;;5209753;28;20510;-35
2022/01/26 19:16:06;;;;;;;55.47;30.83;;;13.30;90.60;;;;;;5209866;28;20041;-32
2022/01/26 19:26:37;;;;;;;37.87;19.97;;;13.20;90.60;;;;;;5208147;28;20526;-36
2022/01/26 19:46:15;;;;;;;48.60;24.27;;;13.20;93.40;;;;;;5105495;29;20044;-29
2022/01/26 19:51:46;;;;;;;41.67;24.17;;;13.30;92.00;;;;;;5117543;28;20151;-32
2022/01/26 19:54:19;;;;;;;28.23;16.87;;;13.20;90.80;;;;;;5110738;29;20039;-34
2022/01/26 19:56:50;;;;;;;32.57;18.40;;;13.20;91.00;;;;;;5105656;29;20059;-29
2022/01/26 19:59:22;;;;;;;25.43;14.60;;;13.20;91.20;;;;;;5106309;29;20056;-31
2022/01/26 20:01:56;;;;;;;32.10;20.30;;;13.10;90.70;;;;;;5106022;29;20071;-31
2022/01/26 20:04:30;;;;;;;31.97;17.77;;;13.10;90.90;;;;;;5107567;29;20511;-31
2022/01/26 20:07:12;;;;;;;23.60;15.90;;;13.00;90.70;;;;;;5099190;29;20064;-29
2022/01/26 20:09:48;;;;;;;44.27;29.63;;;13.00;90.60;;;;;;5072454;29;20408;-35
2022/01/26 20:15:03;;;;;;;107.28;49.97;;;13.00;90.80;;;;;;5162569;28;20055;-33
2022/01/26 20:17:34;;;;;;;54.10;23.27;;;13.00;90.60;;;;;;5162505;28;20058;-37
2022/01/26 20:20:12;;;;;;;43.97;24.43;;;13.00;90.60;;;;;;5173680;28;20052;-30